Time;durP1;ratioP1;P1;durP2;ratioP2;P2;SDS_P1;SDS_P2;PMS_P1;PMS_P2;Temp;Humidity;BMP_temperature;BMP_pressure;BME280_temperature;BME280_humidity;BME280_pressure;Samples;Min_cycle;Max_cycle;Signal;HPM_P1;HPM_P2
2023/04/03 00:01:15;;;;;;;8.60;4.97;;;;;;;5.73;53.26;102920.09;4937393;28;114363;-78
2023/04/03 00:03:42;;;;;;;8.45;5.13;;;;;;;5.72;53.22;102923.56;4939888;28;123698;-78
2023/04/03 00:06:11;;;;;;;10.80;5.35;;;;;;;5.69;53.49;102929.69;4941264;28;124943;-77
2023/04/03 00:08:40;;;;;;;9.07;5.25;;;;;;;5.70;53.62;102935.81;4921920;28;114251;-78
2023/04/03 00:11:08;;;;;;;9.68;4.90;;;;;;;5.68;53.34;102938.44;4930881;28;113343;-78
2023/04/03 00:13:35;;;;;;;9.68;5.10;;;;;;;5.68;53.71;102934.94;4917726;28;127451;-79
2023/04/03 00:16:03;;;;;;;8.48;5.20;;;;;;;5.69;53.61;102934.06;4940872;28;125845;-78
2023/04/03 00:18:30;;;;;;;6.32;4.30;;;;;;;5.66;53.75;102930.53;4944518;28;114837;-78
2023/04/03 00:20:58;;;;;;;6.72;4.63;;;;;;;5.63;53.59;102930.53;4938238;28;114713;-78
2023/04/03 00:23:25;;;;;;;5.78;4.57;;;;;;;5.59;53.33;102933.09;4927438;28;123261;-78
2023/04/03 00:25:53;;;;;;;7.70;4.47;;;;;;;5.53;53.66;102933.91;4948581;28;123987;-78
2023/04/03 00:28:20;;;;;;;7.20;4.30;;;;;;;5.49;54.02;102937.38;4949437;28;115688;-78
2023/04/03 00:30:51;;;;;;;7.30;4.80;;;;;;;5.46;53.99;102937.34;4924303;28;111954;-78
2023/04/03 00:33:24;;;;;;;8.00;4.45;;;;;;;5.45;53.79;102940.84;4937292;28;124929;-78
2023/04/03 00:35:51;;;;;;;7.88;4.28;;;;;;;5.44;54.00;102939.06;4943655;28;124844;-78
2023/04/03 00:38:19;;;;;;;6.80;4.60;;;;;;;5.42;53.73;102932.94;4925508;28;113743;-78
2023/04/03 00:40:48;;;;;;;8.82;4.50;;;;;;;5.41;54.15;102944.31;4929614;28;117402;-78
2023/04/03 00:43:18;;;;;;;6.75;4.30;;;;;;;5.40;53.91;102938.16;4945800;28;123358;-77
2023/04/03 00:45:50;;;;;;;7.88;4.72;;;;;;;5.39;54.03;102935.53;4944784;28;124581;-78
2023/04/03 00:48:41;;;;;;;8.65;4.95;;;;;;;5.38;54.09;102939.03;4932183;28;113022;-78
2023/04/03 00:51:13;;;;;;;7.10;4.40;;;;;;;5.37;54.29;102945.13;4941784;28;113207;-78
2023/04/03 00:53:50;;;;;;;6.40;4.65;;;;;;;5.34;54.33;102947.75;4938493;28;123268;-78
2023/04/03 00:56:21;;;;;;;8.68;4.53;;;;;;;5.33;54.17;102956.47;4939068;28;122026;-78
2023/04/03 00:58:57;;;;;;;7.15;3.67;;;;;;;5.32;54.49;102952.97;4942331;28;114794;-78
2023/04/03 01:01:27;;;;;;;7.72;3.35;;;;;;;5.32;54.57;102950.34;4928354;28;112773;-78
2023/04/03 01:03:55;;;;;;;5.70;3.60;;;;;;;5.36;54.58;102951.25;4926072;28;123606;-78
2023/04/03 01:06:31;;;;;;;5.35;3.08;;;;;;;5.38;54.96;102949.53;4937407;28;124208;-78
2023/04/03 01:09:05;;;;;;;5.68;2.85;;;;;;;5.43;54.81;102942.59;4908767;28;114396;-79
2023/04/03 01:11:32;;;;;;;5.25;3.00;;;;;;;5.50;54.67;102954.03;4899644;28;112866;-78
2023/04/03 01:14:01;;;;;;;6.50;2.90;;;;;;;5.53;54.83;102952.31;4933240;28;122541;-78
2023/04/03 01:16:31;;;;;;;5.07;3.20;;;;;;;5.57;54.53;102956.72;4911600;28;124152;-78
2023/04/03 01:19:01;;;;;;;6.85;3.10;;;;;;;5.62;54.96;102955.03;4910480;28;112704;-78
2023/04/03 01:21:58;;;;;;;5.70;2.72;;;;;;;5.68;55.00;102958.59;4911343;28;112920;-78
2023/04/03 01:24:33;;;;;;;4.20;2.90;;;;;;;5.71;54.81;102959.50;4921406;28;123771;-78
2023/04/03 01:27:05;;;;;;;5.05;2.80;;;;;;;5.76;54.67;102962.16;4912860;28;122666;-78
2023/04/03 01:29:33;;;;;;;6.38;3.20;;;;;;;5.81;54.77;102965.72;4918351;28;114480;-78
2023/04/03 01:32:02;;;;;;;7.50;3.25;;;;;;;5.84;54.75;102966.63;4936943;28;114089;-78
2023/04/03 01:34:30;;;;;;;6.30;2.97;;;;;;;5.86;54.50;102964.03;4942829;28;124218;-78
2023/04/03 01:36:58;;;;;;;6.40;3.10;;;;;;;5.89;54.62;102963.16;4941295;28;125627;-78
2023/04/03 01:39:25;;;;;;;7.38;3.10;;;;;;;5.90;54.33;102960.56;4941095;28;112740;-78
2023/04/03 01:41:53;;;;;;;5.35;3.03;;;;;;;5.91;54.32;102962.28;4937396;28;113185;-78
2023/04/03 01:44:27;;;;;;;5.63;3.33;;;;;;;5.93;54.55;102960.56;4907089;28;123686;-79
2023/04/03 01:46:55;;;;;;;5.55;2.88;;;;;;;5.93;54.55;102971.06;4928556;28;123487;-78
2023/04/03 01:49:24;;;;;;;5.75;2.83;;;;;;;5.92;54.20;102964.06;4930657;28;115412;-78
2023/04/03 01:51:52;;;;;;;5.40;2.72;;;;;;;5.92;54.41;102958.81;4939633;28;113704;-78
2023/04/03 01:54:19;;;;;;;8.32;3.13;;;;;;;5.91;54.54;102962.28;4939386;28;121726;-79
2023/04/03 01:56:46;;;;;;;4.55;2.90;;;;;;;5.89;54.44;102964.03;4930939;28;123506;-78
2023/04/03 01:59:16;;;;;;;6.63;2.70;;;;;;;5.88;54.45;102962.28;4927270;28;113397;-77
2023/04/03 02:01:45;;;;;;;4.78;2.75;;;;;;;5.87;54.46;102965.78;4925968;28;113259;-78
2023/04/03 02:04:12;;;;;;;4.80;2.63;;;;;;;5.85;54.36;102967.50;4920524;28;123930;-78
2023/04/03 02:06:40;;;;;;;8.15;2.58;;;;;;;5.82;54.14;102967.47;4924602;28;123394;-78
2023/04/03 02:09:08;;;;;;;5.95;2.58;;;;;;;5.78;54.53;102965.69;4937635;28;116176;-78
2023/04/03 02:11:35;;;;;;;4.00;2.65;;;;;;;5.76;54.27;102973.56;4943716;28;113348;-78
2023/04/03 02:14:02;;;;;;;5.55;2.50;;;;;;;5.72;54.41;102965.63;4927303;28;124628;-78
2023/04/03 02:16:30;;;;;;;5.90;2.30;;;;;;;5.69;54.39;102976.13;4935838;28;121723;-78
2023/04/03 02:18:57;;;;;;;6.22;2.53;;;;;;;5.63;54.63;102975.22;4941182;28;115641;-78
2023/04/03 02:21:25;;;;;;;4.40;2.38;;;;;;;5.59;54.52;102976.03;4925877;28;113295;-78
2023/04/03 02:23:53;;;;;;;3.67;2.47;;;;;;;5.53;54.44;102975.97;4919200;28;122648;-78
2023/04/03 02:26:20;;;;;;;5.32;2.10;;;;;;;5.51;54.69;102982.09;4925211;28;124205;-78
2023/04/03 02:28:48;;;;;;;3.47;1.90;;;;;;;5.45;54.83;102977.66;4937576;28;114071;-78
2023/04/03 02:31:15;;;;;;;5.53;2.13;;;;;;;5.44;54.67;102986.38;4924346;28;113009;-78
2023/04/03 02:33:44;;;;;;;6.45;2.40;;;;;;;5.42;54.74;102988.09;4934693;28;125223;-78
2023/04/03 02:36:14;;;;;;;5.03;2.50;;;;;;;5.41;54.39;102986.38;4920923;28;122100;-77
2023/04/03 02:38:45;;;;;;;4.15;2.10;;;;;;;5.40;54.90;102989.84;4919639;28;113293;-78
2023/04/03 02:41:12;;;;;;;3.70;2.15;;;;;;;5.41;54.77;102991.63;4922884;28;113423;-78
2023/04/03 02:43:40;;;;;;;5.25;1.98;;;;;;;5.40;54.71;102995.09;4928113;28;122051;-79
2023/04/03 02:46:07;;;;;;;6.13;2.38;;;;;;;5.40;55.04;102985.47;4919004;28;122792;-78
2023/04/03 02:48:35;;;;;;;5.93;2.10;;;;;;;5.41;54.58;102992.50;4936596;28;113885;-77
2023/04/03 02:51:02;;;;;;;4.72;2.17;;;;;;;5.40;54.89;102989.84;4926047;28;114513;-79
2023/04/03 02:53:29;;;;;;;5.38;2.05;;;;;;;5.38;54.98;102988.94;4943412;28;123311;-78
2023/04/03 02:55:58;;;;;;;4.75;2.35;;;;;;;5.36;54.66;102988.06;4925945;28;123441;-78
2023/04/03 02:58:25;;;;;;;5.75;2.20;;;;;;;5.33;54.92;102988.91;4919084;28;113932;-78
2023/04/03 03:00:55;;;;;;;4.18;2.13;;;;;;;5.31;54.98;102992.38;4920541;28;114928;-78
2023/04/03 03:03:23;;;;;;;6.63;2.17;;;;;;;5.31;54.87;102984.47;4919317;28;124101;-79
2023/04/03 03:05:50;;;;;;;4.13;2.00;;;;;;;5.31;54.62;102989.72;4941195;28;122271;-78
2023/04/03 03:08:19;;;;;;;6.20;2.30;;;;;;;5.28;54.72;102985.34;4919481;28;115401;-78
2023/04/03 03:10:47;;;;;;;4.50;2.20;;;;;;;5.29;54.85;102987.09;4919255;28;114329;-78
2023/04/03 03:13:14;;;;;;;5.68;2.30;;;;;;;5.29;54.64;102991.47;4927566;28;125511;-79
2023/04/03 03:15:41;;;;;;;3.78;2.15;;;;;;;5.28;55.08;102987.09;4923880;28;122837;-78
2023/04/03 03:18:08;;;;;;;4.45;2.30;;;;;;;5.28;54.92;102989.72;4924933;28;112728;-78
2023/04/03 03:20:35;;;;;;;6.57;2.40;;;;;;;5.28;55.07;102990.59;4942104;28;113245;-77
2023/04/03 03:23:03;;;;;;;3.88;2.25;;;;;;;5.27;54.90;102988.81;4923208;28;124021;-78
2023/04/03 03:25:30;;;;;;;4.55;1.90;;;;;;;5.26;54.91;102982.69;4945682;28;123396;-78
2023/04/03 03:27:57;;;;;;;5.50;1.80;;;;;;;5.26;54.96;102987.94;4920008;28;112804;-78
2023/04/03 03:30:25;;;;;;;4.85;1.98;;;;;;;5.24;55.02;103000.19;4928260;28;112484;-78
2023/04/03 03:32:53;;;;;;;5.00;1.95;;;;;;;5.22;54.61;102990.53;4921419;28;123127;-78
2023/04/03 03:35:20;;;;;;;4.15;1.83;;;;;;;5.22;55.00;102995.78;4909808;28;121863;-78
2023/04/03 03:37:47;;;;;;;4.40;1.88;;;;;;;5.23;55.34;102997.53;4941265;28;113377;-78
2023/04/03 03:40:15;;;;;;;3.92;2.17;;;;;;;5.23;55.20;103003.66;4912102;28;113370;-78
2023/04/03 03:42:44;;;;;;;7.35;2.10;;;;;;;5.22;55.01;103007.16;4927167;28;123026;-78
2023/04/03 03:45:11;;;;;;;4.45;1.92;;;;;;;5.24;55.18;103010.69;4932538;28;122586;-79
2023/04/03 03:47:39;;;;;;;4.47;1.73;;;;;;;5.25;54.94;103017.72;4939895;28;113652;-77
2023/04/03 03:50:07;;;;;;;3.05;1.67;;;;;;;5.24;54.95;103015.94;4945639;28;112107;-78
2023/04/03 03:52:34;;;;;;;3.72;1.88;;;;;;;5.26;55.05;103019.47;4944842;28;124339;-78
2023/04/03 03:55:02;;;;;;;4.25;1.80;;;;;;;5.25;54.78;103017.72;4925510;28;122502;-79
2023/04/03 03:57:30;;;;;;;4.60;1.67;;;;;;;5.25;54.91;103022.97;4922380;28;114029;-78
2023/04/03 03:59:58;;;;;;;3.83;1.75;;;;;;;5.23;54.80;103019.41;4936191;28;115042;-78
2023/04/03 04:02:25;;;;;;;5.78;1.77;;;;;;;5.20;55.08;103029.91;4922294;28;122671;-78
2023/04/03 04:04:53;;;;;;;4.63;1.65;;;;;;;5.14;54.72;103027.22;4923120;28;122547;-78
2023/04/03 04:07:21;;;;;;;6.18;2.00;;;;;;;5.09;54.83;103026.25;4917990;28;111645;-78
2023/04/03 04:09:49;;;;;;;3.20;1.63;;;;;;;5.05;54.99;103024.47;4911797;28;112400;-78
2023/04/03 04:12:16;;;;;;;6.20;1.92;;;;;;;5.01;55.20;103022.63;4917271;28;123722;-78
2023/04/03 04:14:46;;;;;;;5.50;1.98;;;;;;;4.98;55.23;103027.88;4921347;28;122534;-78
2023/04/03 04:17:16;;;;;;;3.42;1.80;;;;;;;4.95;55.18;103033.06;4936803;28;112760;-78
2023/04/03 04:19:43;;;;;;;4.32;1.83;;;;;;;4.90;54.97;103035.63;4933810;28;114606;-78
2023/04/03 04:22:10;;;;;;;5.00;2.00;;;;;;;4.87;55.38;103031.22;4923925;28;122618;-78
2023/04/03 04:24:37;;;;;;;3.67;1.70;;;;;;;4.86;55.50;103037.34;4934763;28;122023;-78
2023/04/03 04:27:07;;;;;;;3.20;1.70;;;;;;;4.86;55.69;103031.22;4923707;28;113608;-78
2023/04/03 04:29:37;;;;;;;7.03;1.63;;;;;;;4.86;55.30;103034.72;4911551;28;112390;-78
2023/04/03 04:32:06;;;;;;;6.38;1.88;;;;;;;4.87;55.33;103036.47;4938797;28;122457;-78
2023/04/03 04:34:34;;;;;;;5.43;1.80;;;;;;;4.86;55.45;103034.72;4923697;28;122800;-78
2023/04/03 04:37:02;;;;;;;3.33;1.70;;;;;;;4.86;55.41;103034.72;4909982;28;113748;-78
2023/04/03 04:39:30;;;;;;;3.45;1.80;;;;;;;4.85;55.29;103032.94;4940507;28;113491;-78
2023/04/03 04:41:58;;;;;;;3.03;1.35;;;;;;;4.84;55.25;103036.44;4911641;28;122939;-78
2023/04/03 04:44:28;;;;;;;2.88;1.50;;;;;;;4.81;55.39;103036.38;4918816;28;122620;-78
2023/04/03 04:46:55;;;;;;;2.45;1.60;;;;;;;4.79;55.33;103040.72;4946069;28;116466;-77
2023/04/03 04:49:22;;;;;;;1.75;1.20;;;;;;;4.79;55.52;103042.47;4928570;28;114245;-78
2023/04/03 04:51:49;;;;;;;3.45;1.40;;;;;;;4.79;55.34;103042.47;4950326;28;123144;-78
2023/04/03 04:54:23;;;;;;;2.95;1.02;;;;;;;4.80;55.40;103049.47;4925701;28;123153;-78
2023/04/03 04:56:52;;;;;;;4.43;1.60;;;;;;;4.81;55.31;103046.88;4935932;28;114341;-78
2023/04/03 04:59:19;;;;;;;2.75;1.42;;;;;;;4.81;55.17;103062.63;4921787;28;112722;-78
2023/04/03 05:01:49;;;;;;;5.78;1.60;;;;;;;4.81;55.47;103062.63;4919934;28;123707;-78
2023/04/03 05:04:17;;;;;;;3.50;1.35;;;;;;;4.80;55.22;103055.63;4927332;28;124695;-78
2023/04/03 05:06:48;;;;;;;4.20;1.50;;;;;;;4.82;55.37;103063.50;4922281;28;114622;-78
2023/04/03 05:09:20;;;;;;;3.88;1.65;;;;;;;4.82;55.06;103064.41;4918720;28;113866;-78
2023/04/03 05:11:49;;;;;;;3.72;1.50;;;;;;;4.81;55.03;103057.38;4922906;28;122361;-78
2023/04/03 05:14:18;;;;;;;2.78;1.30;;;;;;;4.80;55.30;103068.75;4942561;28;123268;-78
2023/04/03 05:16:47;;;;;;;3.35;1.40;;;;;;;4.80;55.02;103066.13;4937159;28;114580;-78
2023/04/03 05:19:18;;;;;;;3.90;1.33;;;;;;;4.79;55.33;103069.59;4929755;28;112134;-78
2023/04/03 05:21:45;;;;;;;3.72;1.50;;;;;;;4.80;55.35;103075.72;4912665;28;122434;-77
2023/04/03 05:24:15;;;;;;;3.63;1.50;;;;;;;4.80;55.34;103073.09;4924083;28;123466;-78
2023/04/03 05:26:43;;;;;;;2.90;1.55;;;;;;;4.81;54.98;103067.88;4927882;28;114008;-78
2023/04/03 05:29:12;;;;;;;5.75;1.95;;;;;;;4.79;55.03;103074.84;4914588;28;113339;-78
2023/04/03 05:31:39;;;;;;;4.43;1.63;;;;;;;4.78;55.02;103073.06;4893583;28;122690;-78
2023/04/03 05:34:08;;;;;;;4.07;1.60;;;;;;;4.77;55.19;103063.44;4910828;28;122522;-78
2023/04/03 05:36:37;;;;;;;3.58;1.55;;;;;;;4.76;55.04;103071.31;4911789;28;113517;-78
2023/04/03 05:39:08;;;;;;;3.47;1.38;;;;;;;4.72;54.92;103067.75;4931858;28;114566;-79
2023/04/03 05:41:38;;;;;;;4.10;1.70;;;;;;;4.70;55.08;103079.97;4912144;28;122141;-78
2023/04/03 05:44:06;;;;;;;6.45;1.40;;;;;;;4.69;55.26;103078.22;4912325;28;122986;-78
2023/04/03 05:46:33;;;;;;;3.35;1.20;;;;;;;4.67;55.24;103074.66;4933482;28;112872;-79
2023/04/03 05:49:04;;;;;;;4.57;1.60;;;;;;;4.66;55.28;103078.16;4919858;28;114100;-79
2023/04/03 05:51:36;;;;;;;6.68;1.50;;;;;;;4.64;55.41;103070.25;4921014;28;123489;-78
2023/04/03 05:54:17;;;;;;;2.70;1.52;;;;;;;4.64;55.51;103079.88;4925969;28;123286;-78
2023/04/03 05:56:45;;;;;;;3.10;1.50;;;;;;;4.62;55.54;103076.34;4937743;28;115337;-78
2023/04/03 05:59:13;;;;;;;3.53;1.90;;;;;;;4.61;55.56;103085.06;4932243;28;113714;-78
2023/04/03 06:01:40;;;;;;;3.95;1.92;;;;;;;4.62;55.48;103092.09;4941267;28;122500;-78
2023/04/03 06:04:08;;;;;;;4.13;1.50;;;;;;;4.63;55.82;103093.84;4928040;28;123340;-78
2023/04/03 06:06:52;;;;;;;4.38;1.63;;;;;;;4.65;55.79;103092.13;4920807;28;113890;-78
2023/04/03 06:09:21;;;;;;;3.78;1.50;;;;;;;4.68;55.84;103097.44;4921132;28;115636;-78
2023/04/03 06:11:52;;;;;;;3.58;1.60;;;;;;;4.70;55.82;103095.72;4920162;28;123618;-78
2023/04/03 06:14:21;;;;;;;4.28;1.50;;;;;;;4.74;55.95;103097.53;4929230;28;123639;-78
2023/04/03 06:16:49;;;;;;;4.47;1.88;;;;;;;4.78;56.04;103094.06;4937680;28;115216;-78
2023/04/03 06:19:16;;;;;;;6.70;1.83;;;;;;;4.80;55.97;103091.47;4939421;28;114878;-78
2023/04/03 06:21:49;;;;;;;6.90;2.15;;;;;;;4.85;55.97;103090.69;4936555;28;123571;-78
2023/04/03 06:24:17;;;;;;;5.05;2.13;;;;;;;4.88;56.17;103090.75;4907012;28;122182;-78
2023/04/03 06:26:44;;;;;;;4.32;1.83;;;;;;;4.93;56.02;103097.81;4916436;28;114732;-78
2023/04/03 06:29:11;;;;;;;6.95;1.77;;;;;;;5.00;56.32;103095.28;4921231;28;114306;-78
2023/04/03 06:31:38;;;;;;;4.63;1.65;;;;;;;5.06;56.07;103105.00;4940291;28;124709;-78
2023/04/03 06:34:07;;;;;;;2.90;1.70;;;;;;;5.12;56.04;103105.06;4951732;28;124643;-78
2023/04/03 06:36:35;;;;;;;4.18;1.70;;;;;;;5.20;56.31;103111.34;4937480;28;114612;-78
2023/04/03 06:39:03;;;;;;;4.53;1.65;;;;;;;5.28;56.29;103105.31;4938223;28;114777;-78
2023/04/03 06:41:30;;;;;;;3.60;1.73;;;;;;;5.34;56.10;103105.41;4937262;28;124385;-78
2023/04/03 06:43:58;;;;;;;6.72;1.60;;;;;;;5.41;55.89;103107.25;4934463;28;124211;-78
2023/04/03 06:46:26;;;;;;;3.50;1.88;;;;;;;5.49;56.10;103108.22;4921108;28;113352;-79
2023/04/03 06:48:54;;;;;;;3.38;1.30;;;;;;;5.58;55.91;103110.09;4937603;28;114461;-78
2023/04/03 06:51:27;;;;;;;3.90;1.65;;;;;;;5.66;55.86;103106.66;4932923;28;125035;-78
2023/04/03 06:53:57;;;;;;;4.93;1.90;;;;;;;5.77;56.02;103116.44;4939426;28;124376;-78
2023/04/03 06:56:25;;;;;;;3.78;1.55;;;;;;;5.87;55.84;103113.03;4940609;28;117585;-78
2023/04/03 06:58:57;;;;;;;4.72;1.77;;;;;;;5.95;55.71;103110.50;4936693;28;114923;-78
2023/04/03 07:01:27;;;;;;;7.70;1.63;;;;;;;6.06;55.22;103118.53;4936852;28;124492;-79
2023/04/03 07:03:55;;;;;;;4.20;1.60;;;;;;;6.15;55.37;103118.63;4919141;28;124927;-79
2023/04/03 07:06:23;;;;;;;4.60;1.95;;;;;;;6.21;55.43;103122.19;4951398;22;113504;-72
2023/04/03 07:08:51;;;;;;;4.38;1.60;;;;;;;6.32;55.17;103122.31;4951724;28;111758;-72
2023/04/03 07:11:18;;;;;;;2.97;1.15;;;;;;;6.40;55.05;103131.19;4947824;28;124774;-73
2023/04/03 07:13:47;;;;;;;4.05;1.52;;;;;;;6.49;54.72;103124.22;4948044;28;123743;-74
2023/04/03 07:16:14;;;;;;;2.95;1.58;;;;;;;6.58;54.69;103132.19;4930221;28;114454;-73
2023/04/03 07:18:41;;;;;;;2.63;1.27;;;;;;;6.68;55.00;103126.13;4919005;28;114053;-73
2023/04/03 07:21:09;;;;;;;4.38;1.50;;;;;;;6.78;54.77;103138.53;4947598;28;124005;-72
2023/04/03 07:23:38;;;;;;;4.07;1.70;;;;;;;6.88;54.53;103143.84;4955395;28;124043;-73
2023/04/03 07:26:07;;;;;;;3.13;1.50;;;;;;;6.99;54.36;103147.44;4952756;28;114912;-74
2023/04/03 07:28:36;;;;;;;4.32;1.58;;;;;;;7.07;54.63;103148.38;4945999;28;114881;-74
2023/04/03 07:31:11;;;;;;;2.50;1.20;;;;;;;7.15;54.07;103149.28;4941198;28;123125;-74
2023/04/03 07:33:40;;;;;;;3.10;1.40;;;;;;;7.26;54.13;103151.13;4941728;28;124190;-74
2023/04/03 07:36:10;;;;;;;3.58;1.10;;;;;;;7.34;53.64;103154.69;4942122;28;114454;-73
2023/04/03 07:38:37;;;;;;;4.53;1.40;;;;;;;7.40;54.21;103149.44;4951128;28;114314;-69
2023/04/03 07:41:05;;;;;;;6.15;1.30;;;;;;;7.50;53.78;103153.91;4950948;28;125030;-69
2023/04/03 07:43:34;;;;;;;3.67;1.30;;;;;;;7.60;53.99;103153.06;4944670;28;123890;-69
2023/04/03 07:46:02;;;;;;;5.22;1.38;;;;;;;7.68;53.37;103154.84;4957068;28;114135;-69
2023/04/03 07:48:29;;;;;;;4.25;1.33;;;;;;;7.74;53.62;103160.16;4951588;28;113917;-74
2023/04/03 07:51:00;;;;;;;3.95;1.55;;;;;;;7.83;53.37;103160.19;4935882;28;123155;-74
2023/04/03 07:53:28;;;;;;;7.30;1.30;;;;;;;7.89;53.10;103165.50;4946143;28;123963;-75
2023/04/03 07:55:59;;;;;;;3.40;1.40;;;;;;;7.96;52.97;103159.34;4955294;28;114197;-74
2023/04/03 07:58:26;;;;;;;2.65;1.13;;;;;;;8.05;53.06;103165.56;4923350;28;113317;-74
2023/04/03 08:00:53;;;;;;;6.28;1.42;;;;;;;8.12;52.76;103162.94;4949908;28;124824;-75
2023/04/03 08:03:22;;;;;;;2.55;1.10;;;;;;;8.19;53.07;103161.19;4948326;28;123199;-75
2023/04/03 08:05:50;;;;;;;3.20;1.20;;;;;;;8.28;52.50;103158.56;4950704;28;115728;-74
2023/04/03 08:08:21;;;;;;;2.28;1.17;;;;;;;8.34;52.20;103162.97;4953004;28;115018;-73
2023/04/03 08:10:51;;;;;;;4.40;1.52;;;;;;;8.35;51.57;103160.34;4936758;28;122931;-74
2023/04/03 08:13:19;;;;;;;3.20;1.23;;;;;;;8.37;51.28;103163.84;4939003;28;122997;-73
2023/04/03 08:15:47;;;;;;;2.72;1.30;;;;;;;8.41;51.44;103163.88;4947982;28;114361;-73
2023/04/03 08:18:15;;;;;;;2.42;1.00;;;;;;;8.46;51.42;103167.44;4941225;28;113375;-73
2023/04/03 08:20:43;;;;;;;2.92;1.42;;;;;;;8.52;51.48;103162.16;4949079;28;124064;-73
2023/04/03 08:23:11;;;;;;;3.63;1.25;;;;;;;8.58;51.07;103162.16;4957939;28;124231;-73
2023/04/03 08:25:40;;;;;;;5.13;1.20;;;;;;;8.65;50.95;103161.28;4962527;28;113418;-73
2023/04/03 08:28:08;;;;;;;2.88;1.00;;;;;;;8.70;50.78;103162.19;4936128;28;114002;-73
2023/04/03 08:30:39;;;;;;;4.75;1.13;;;;;;;8.79;50.38;103165.69;4954061;28;124303;-73
2023/04/03 08:33:07;;;;;;;2.60;1.00;;;;;;;8.86;50.52;103162.16;4958755;28;124660;-73
2023/04/03 08:35:41;;;;;;;2.75;1.20;;;;;;;8.92;49.79;103168.31;4964077;28;114709;-73
2023/04/03 08:38:11;;;;;;;4.75;1.08;;;;;;;8.98;49.50;103167.44;4953072;28;113746;-73
2023/04/03 08:40:40;;;;;;;4.47;1.30;;;;;;;9.02;49.26;103169.19;4946736;28;123903;-73
2023/04/03 08:43:25;;;;;;;3.15;1.00;;;;;;;9.10;49.43;103167.44;4943327;28;122767;-73
2023/04/03 08:45:55;;;;;;;1.60;0.90;;;;;;;9.18;49.08;103174.47;4953083;28;114311;-73
2023/04/03 08:48:30;;;;;;;1.98;1.02;;;;;;;9.28;49.22;103165.63;4953934;28;113848;-73
2023/04/03 08:50:59;;;;;;;;;;;;;;;9.37;49.24;103164.75;4961048;28;124286;-73
2023/04/03 08:53:43;;;;;;;2.38;0.90;;;;;;;9.44;47.92;103167.34;4955780;28;124037;-72
2023/04/03 08:56:14;;;;;;;4.00;0.73;;;;;;;9.48;47.52;103169.09;4952263;28;115074;-72
2023/04/03 08:58:55;;;;;;;1.88;0.70;;;;;;;9.51;47.24;103163.81;4960405;28;114851;-73
2023/04/03 09:01:29;;;;;;;1.27;0.65;;;;;;;9.61;47.38;103161.16;4954658;28;124435;-73
2023/04/03 09:03:56;;;;;;;1.38;0.70;;;;;;;9.70;46.02;103158.44;4954958;28;123841;-74
2023/04/03 09:06:35;;;;;;;2.42;0.90;;;;;;;9.73;45.47;103166.38;4939341;28;113973;-72
2023/04/03 09:09:14;;;;;;;1.60;0.55;;;;;;;9.77;45.55;103165.47;4951140;28;114670;-73
2023/04/03 09:12:08;;;;;;;1.63;0.60;;;;;;;9.80;44.40;103176.06;4953215;28;124009;-75
2023/04/03 09:14:40;;;;;;;1.25;0.60;;;;;;;9.86;45.36;103165.44;4928709;28;124456;-77
2023/04/03 09:17:30;;;;;;;3.58;0.88;;;;;;;9.99;45.25;103165.38;4953133;28;114585;-73
2023/04/03 09:20:19;;;;;;;2.78;0.63;;;;;;;10.12;45.47;103167.06;4939840;28;113971;-74
2023/04/03 09:22:50;;;;;;;1.42;0.70;;;;;;;10.24;45.09;103171.41;4951861;28;123853;-74
2023/04/03 09:25:34;;;;;;;3.08;0.60;;;;;;;10.33;43.24;103176.69;4936405;28;123083;-73
2023/04/03 09:28:02;;;;;;;1.73;0.63;;;;;;;10.37;43.64;103166.94;4953071;28;114703;-75
2023/04/03 09:30:33;;;;;;;2.63;0.52;;;;;;;10.45;43.36;103165.13;4953076;28;114858;-73
2023/04/03 09:33:00;;;;;;;1.48;0.68;;;;;;;10.50;41.58;103168.63;4954447;28;124936;-73
2023/04/03 09:35:33;;;;;;;0.70;0.50;;;;;;;10.52;41.22;103166.84;4938536;28;123423;-74
2023/04/03 09:38:22;;;;;;;1.85;0.73;;;;;;;10.54;40.42;103169.47;4939771;28;113302;-74
2023/04/03 09:41:14;;;;;;;0.88;0.50;;;;;;;10.58;41.78;103172.09;4947315;28;114016;-74
2023/04/03 09:43:52;;;;;;;0.52;0.40;;;;;;;10.68;41.67;103162.28;4958672;28;123162;-73
2023/04/03 09:46:31;;;;;;;0.90;0.50;;;;;;;10.76;41.47;103159.59;4958814;28;123759;-73
2023/04/03 09:49:03;;;;;;;0.82;0.40;;;;;;;10.82;41.97;103154.22;4938998;28;115420;-73
2023/04/03 09:51:40;;;;;;;1.00;0.60;;;;;;;10.90;41.10;103144.44;4936989;28;115176;-73
2023/04/03 09:54:35;;;;;;;0.30;0.30;;;;;;;10.95;40.85;103150.56;4962664;28;123909;-77
2023/04/03 09:57:09;;;;;;;2.47;0.50;;;;;;;10.96;39.54;103157.63;4938447;28;122792;-73
2023/04/03 09:59:43;;;;;;;0.82;0.43;;;;;;;10.96;39.09;103141.72;4952478;28;113687;-73
2023/04/03 10:02:15;;;;;;;1.13;0.50;;;;;;;11.00;39.89;103143.47;4962368;28;113893;-74
2023/04/03 10:04:43;;;;;;;0.90;0.47;;;;;;;11.05;38.41;103131.00;4947778;28;124079;-73
2023/04/03 10:07:34;;;;;;;1.17;0.52;;;;;;;11.02;36.98;103141.66;4937622;28;123712;-74
2023/04/03 10:10:25;;;;;;;1.13;0.50;;;;;;;10.97;36.33;103138.19;4952475;28;114893;-73
2023/04/03 10:13:30;;;;;;;1.45;0.40;;;;;;;10.95;37.42;103139.97;4953251;28;114117;-73
2023/04/03 10:16:12;;;;;;;0.60;0.45;;;;;;;11.00;37.72;103146.13;4887592;28;123211;-69
2023/04/03 10:19:01;;;;;;;0.80;0.50;;;;;;;11.04;37.11;103134.56;4936522;28;123803;-68
2023/04/03 10:21:50;;;;;;;0.80;0.60;;;;;;;11.06;37.29;103132.78;4932146;28;114727;-68
2023/04/03 10:24:28;;;;;;;1.05;0.50;;;;;;;11.10;37.39;103129.19;4942871;28;114293;-69
2023/04/03 10:27:12;;;;;;;1.20;0.70;;;;;;;11.15;37.56;103125.63;4946162;28;124071;-68
2023/04/03 10:29:54;;;;;;;4.50;0.70;;;;;;;11.23;36.71;103131.75;4946971;28;123866;-68
2023/04/03 10:32:31;;;;;;;1.15;0.70;;;;;;;11.23;35.92;103123.78;4948149;28;114246;-68
2023/04/03 10:35:26;;;;;;;2.58;0.52;;;;;;;11.25;35.85;103127.28;4947453;28;113983;-68
2023/04/03 10:37:57;;;;;;;1.13;0.50;;;;;;;11.24;34.99;103118.44;4953853;28;124301;-69
2023/04/03 10:40:47;;;;;;;1.83;0.60;;;;;;;11.23;35.82;103107.88;4943022;28;123805;-68
2023/04/03 10:43:26;;;;;;;0.98;0.50;;;;;;;11.30;36.60;103104.22;4946641;28;115423;-68
2023/04/03 10:46:06;;;;;;;1.75;0.60;;;;;;;11.40;36.61;103100.59;4949167;28;115280;-68
2023/04/03 10:48:39;;;;;;;1.98;0.60;;;;;;;11.47;36.95;103081.03;4945244;28;124091;-68
2023/04/03 10:51:30;;;;;;;0.77;0.40;;;;;;;11.54;36.36;103086.25;4948945;28;123943;-68
2023/04/03 10:54:09;;;;;;;1.10;0.68;;;;;;;11.61;36.50;103083.50;4951009;28;114561;-69
2023/04/03 10:56:41;;;;;;;1.65;0.50;;;;;;;11.65;36.64;103090.53;4951801;28;114055;-68
2023/04/03 10:59:32;;;;;;;0.90;0.45;;;;;;;11.69;36.60;103080.75;4945618;28;124009;-68
2023/04/03 11:02:05;;;;;;;1.17;0.60;;;;;;;11.73;35.37;103093.06;4943151;28;124661;-68
2023/04/03 11:04:37;;;;;;;1.40;0.50;;;;;;;11.71;34.83;103068.31;4946882;28;114789;-68
2023/04/03 11:07:38;;;;;;;1.45;0.50;;;;;;;11.72;35.18;103078.06;4951488;28;114045;-68
2023/04/03 11:10:14;;;;;;;1.20;0.70;;;;;;;11.73;35.28;103074.47;4942213;28;124370;-68
2023/04/03 11:12:54;;;;;;;1.05;0.52;;;;;;;11.77;35.60;103067.34;4946088;28;122008;-67
2023/04/03 11:15:23;;;;;;;1.15;0.50;;;;;;;11.82;35.49;103063.72;4948389;28;114694;-69
2023/04/03 11:18:00;;;;;;;1.67;0.60;;;;;;;11.85;34.97;103061.03;4935165;28;113182;-69
2023/04/03 11:20:33;;;;;;;1.98;0.70;;;;;;;11.88;34.78;103070.72;4935036;28;123044;-68
2023/04/03 11:23:15;;;;;;;2.38;0.60;;;;;;;11.92;34.60;103045.03;4948362;28;124023;-68
2023/04/03 11:25:43;;;;;;;1.15;0.60;;;;;;;11.94;34.31;103053.88;4947036;28;113991;-69
2023/04/03 11:28:13;;;;;;;1.67;0.80;;;;;;;11.95;34.34;103067.13;4945016;28;114256;-68
2023/04/03 11:30:41;;;;;;;3.17;0.77;;;;;;;11.98;34.76;103071.50;4940838;28;124858;-68
2023/04/03 11:33:30;;;;;;;1.05;0.63;;;;;;;12.06;35.29;103062.53;4946500;28;123663;-68
2023/04/03 11:36:03;;;;;;;1.55;0.60;;;;;;;12.16;35.03;103065.91;4941341;28;115819;-68
2023/04/03 11:38:44;;;;;;;1.23;0.50;;;;;;;12.20;35.35;103067.59;4949931;28;115852;-67
2023/04/03 11:41:28;;;;;;;2.53;0.73;;;;;;;12.26;35.77;103056.91;4945556;28;124816;-68
2023/04/03 11:44:25;;;;;;;1.85;0.73;;;;;;;12.36;35.72;103048.78;4944973;28;123778;-68